Time;durP1;ratioP1;P1;durP2;ratioP2;P2;SDS_P1;SDS_P2;PMS_P1;PMS_P2;Temp;Humidity;BMP_temperature;BMP_pressure;BME280_temperature;BME280_humidity;BME280_pressure;Samples;Min_cycle;Max_cycle;Signal;HPM_P1;HPM_P2
2023/10/14 00:01:36;;;;;;;1.73;0.98;;;;;;;;;;5006810;28;20022;-79
2023/10/14 00:04:09;;;;;;;0.60;0.60;;;;;;;;;;5006450;28;20026;-81
2023/10/14 00:06:38;;;;;;;0.98;0.82;;;;;;;;;;5007672;28;20026;-79
2023/10/14 00:09:11;;;;;;;1.05;0.80;;;;;;;;;;5006722;28;20038;-80
2023/10/14 00:11:43;;;;;;;1.20;1.00;;;;;;;;;;5007511;28;20390;-81
2023/10/14 00:14:10;;;;;;;1.00;0.60;;;;;;;;;;5006887;28;20018;-80
2023/10/14 00:16:39;;;;;;;0.90;0.80;;;;;;;;;;5007985;28;20022;-78
2023/10/14 00:19:09;;;;;;;1.20;0.80;;;;;;;;;;5008310;28;20026;-81
2023/10/14 00:21:35;;;;;;;1.27;1.13;;;;;;;;;;5010379;28;20496;-80
2023/10/14 00:24:04;;;;;;;0.73;0.63;;;;;;;;;;5010243;28;20021;-82
2023/10/14 00:26:31;;;;;;;1.05;0.90;;;;;;;;;;5009482;28;20030;-81
2023/10/14 00:29:11;;;;;;;1.33;1.05;;;;;;;;;;5009320;28;20478;-80
2023/10/14 00:31:37;;;;;;;0.85;0.73;;;;;;;;;;5006336;28;20033;-81
2023/10/14 00:34:03;;;;;;;1.52;0.95;;;;;;;;;;5006614;28;20022;-80
2023/10/14 00:36:34;;;;;;;1.20;0.73;;;;;;;;;;5006822;28;20022;-80
2023/10/14 00:39:00;;;;;;;0.60;0.60;;;;;;;;;;5005497;28;20048;-83
2023/10/14 00:41:27;;;;;;;1.10;1.00;;;;;;;;;;5008232;28;20080;-81
2023/10/14 00:43:59;;;;;;;0.70;0.70;;;;;;;;;;5004569;28;20022;-80
2023/10/14 00:46:31;;;;;;;0.80;0.80;;;;;;;;;;5003366;28;20046;-79
2023/10/14 00:49:03;;;;;;;0.60;0.60;;;;;;;;;;5004976;28;20102;-83
2023/10/14 00:51:30;;;;;;;0.60;0.60;;;;;;;;;;5004972;28;20052;-80
2023/10/14 00:54:10;;;;;;;0.98;0.70;;;;;;;;;;5004284;28;20060;-80
2023/10/14 00:56:40;;;;;;;1.17;0.88;;;;;;;;;;5005042;28;20504;-79
2023/10/14 00:59:07;;;;;;;1.05;0.70;;;;;;;;;;4989188;28;20033;-79
2023/10/14 01:01:49;;;;;;;0.98;0.80;;;;;;;;;;5004957;28;20034;-81
2023/10/14 01:04:18;;;;;;;0.60;0.60;;;;;;;;;;5008227;28;20049;-81
2023/10/14 01:07:22;;;;;;;0.60;0.60;;;;;;;;;;5010972;28;20120;-83
2023/10/14 01:14:44;;;;;;;0.63;0.60;;;;;;;;;;5023555;28;20030;-81
2023/10/14 01:17:12;;;;;;;0.68;0.68;;;;;;;;;;5003034;28;20125;-79
2023/10/14 01:19:38;;;;;;;1.83;1.02;;;;;;;;;;5003540;28;20026;-81
2023/10/14 01:22:04;;;;;;;1.60;1.00;;;;;;;;;;5002689;28;20025;-82
2023/10/14 01:24:34;;;;;;;0.60;0.60;;;;;;;;;;5004583;28;20096;-79
2023/10/14 01:27:01;;;;;;;1.90;0.93;;;;;;;;;;5020312;28;20014;-80
2023/10/14 01:29:31;;;;;;;0.65;0.60;;;;;;;;;;5002735;28;20026;-81
2023/10/14 01:32:24;;;;;;;1.08;0.80;;;;;;;;;;5002658;28;20026;-79
2023/10/14 01:35:00;;;;;;;0.77;0.77;;;;;;;;;;5005953;28;20030;-82
2023/10/14 01:37:33;;;;;;;1.58;1.23;;;;;;;;;;5010072;28;20026;-83
2023/10/14 01:40:16;;;;;;;1.10;1.00;;;;;;;;;;5001809;28;20037;-79
2023/10/14 01:42:43;;;;;;;0.60;0.60;;;;;;;;;;5001341;28;20029;-79
2023/10/14 01:45:09;;;;;;;0.90;0.77;;;;;;;;;;5001099;28;20032;-79
2023/10/14 01:47:43;;;;;;;1.00;0.70;;;;;;;;;;5001444;28;20033;-80
2023/10/14 01:50:12;;;;;;;1.15;0.98;;;;;;;;;;5001270;28;20026;-80
2023/10/14 01:52:39;;;;;;;0.93;0.70;;;;;;;;;;5001776;28;20076;-80
2023/10/14 01:55:05;;;;;;;0.90;0.70;;;;;;;;;;5001697;28;20026;-80
2023/10/14 01:57:31;;;;;;;1.05;0.80;;;;;;;;;;5000503;28;20037;-81
2023/10/14 01:59:57;;;;;;;1.02;0.80;;;;;;;;;;5001255;28;20025;-80
2023/10/14 02:02:27;;;;;;;2.90;1.48;;;;;;;;;;5001895;28;20054;-79
2023/10/14 02:04:56;;;;;;;0.98;0.73;;;;;;;;;;5005420;28;20033;-79
2023/10/14 02:07:26;;;;;;;1.38;0.90;;;;;;;;;;5005909;28;20028;-80
2023/10/14 02:09:55;;;;;;;1.17;0.80;;;;;;;;;;5006570;28;20068;-82
2023/10/14 02:12:21;;;;;;;0.85;0.80;;;;;;;;;;5006112;28;20056;-80
2023/10/14 02:14:57;;;;;;;1.00;0.85;;;;;;;;;;5007729;28;20030;-81
2023/10/14 02:17:24;;;;;;;1.20;0.90;;;;;;;;;;5005759;28;20087;-80
2023/10/14 02:19:52;;;;;;;1.55;1.00;;;;;;;;;;5006229;28;20370;-81
2023/10/14 02:22:23;;;;;;;1.50;1.02;;;;;;;;;;5006010;28;20022;-82
2023/10/14 02:24:54;;;;;;;1.10;0.80;;;;;;;;;;5006598;28;20053;-81
2023/10/14 02:27:20;;;;;;;0.98;0.80;;;;;;;;;;5006192;28;20041;-83
2023/10/14 02:29:47;;;;;;;0.70;0.68;;;;;;;;;;5006611;28;20033;-80
2023/10/14 02:32:14;;;;;;;2.40;1.08;;;;;;;;;;5023123;28;20018;-80
2023/10/14 02:34:40;;;;;;;1.23;0.90;;;;;;;;;;5005640;28;20026;-81
2023/10/14 02:37:07;;;;;;;1.17;0.80;;;;;;;;;;5004875;28;20029;-80
2023/10/14 02:39:33;;;;;;;0.90;0.70;;;;;;;;;;5005453;28;20413;-79
2023/10/14 02:42:09;;;;;;;0.95;0.85;;;;;;;;;;5005947;28;20032;-79
2023/10/14 02:44:46;;;;;;;1.10;0.90;;;;;;;;;;5005101;28;20033;-82
2023/10/14 02:47:13;;;;;;;0.50;0.50;;;;;;;;;;5004739;28;20025;-79
2023/10/14 02:49:40;;;;;;;0.77;0.75;;;;;;;;;;5003477;28;20029;-82
2023/10/14 02:52:11;;;;;;;2.50;0.85;;;;;;;;;;5003681;28;20034;-80
2023/10/14 02:54:40;;;;;;;1.00;0.77;;;;;;;;;;5003224;28;20025;-80
2023/10/14 02:57:26;;;;;;;0.90;0.70;;;;;;;;;;5003129;28;20041;-79
2023/10/14 02:59:55;;;;;;;0.88;0.70;;;;;;;;;;5004203;28;20026;-81
2023/10/14 03:07:27;;;;;;;0.80;0.70;;;;;;;;;;5024175;28;20026;-81
2023/10/14 03:09:58;;;;;;;0.80;0.70;;;;;;;;;;5006702;28;20473;-83
2023/10/14 03:12:24;;;;;;;1.25;1.15;;;;;;;;;;5007472;28;20438;-81
2023/10/14 03:14:52;;;;;;;1.23;1.08;;;;;;;;;;5002304;28;20445;-79
2023/10/14 03:17:41;;;;;;;0.93;0.80;;;;;;;;;;5002433;28;20022;-80
2023/10/14 03:22:57;;;;;;;1.58;0.70;;;;;;;;;;5018076;28;20033;-81
2023/10/14 03:25:23;;;;;;;0.88;0.75;;;;;;;;;;5000280;28;20072;-80
2023/10/14 03:27:50;;;;;;;1.00;0.90;;;;;;;;;;5000270;28;20057;-79
2023/10/14 03:30:20;;;;;;;0.80;0.70;;;;;;;;;;5001041;28;20121;-79
2023/10/14 03:32:46;;;;;;;1.00;0.82;;;;;;;;;;5000763;28;20068;-80
2023/10/14 03:35:13;;;;;;;1.05;0.80;;;;;;;;;;5000536;28;20022;-82
2023/10/14 03:37:54;;;;;;;1.17;0.90;;;;;;;;;;5001464;28;20505;-80
2023/10/14 03:40:51;;;;;;;1.20;0.98;;;;;;;;;;5001214;28;20029;-80
2023/10/14 03:43:19;;;;;;;1.23;0.80;;;;;;;;;;5002595;28;20018;-79
2023/10/14 03:45:53;;;;;;;1.42;0.93;;;;;;;;;;5001923;28;20025;-81
2023/10/14 03:48:21;;;;;;;1.33;1.23;;;;;;;;;;5003471;28;20025;-80
2023/10/14 03:50:47;;;;;;;1.15;0.80;;;;;;;;;;5008293;28;20030;-82
2023/10/14 03:53:13;;;;;;;1.02;0.70;;;;;;;;;;5009965;28;20057;-79
2023/10/14 03:55:41;;;;;;;0.80;0.70;;;;;;;;;;5000969;28;20018;-81
2023/10/14 03:58:08;;;;;;;1.65;1.13;;;;;;;;;;5001553;28;20029;-80
2023/10/14 04:00:37;;;;;;;1.92;0.88;;;;;;;;;;5001633;28;20026;-79
2023/10/14 04:03:13;;;;;;;1.02;0.80;;;;;;;;;;5001752;28;20050;-82
2023/10/14 04:05:42;;;;;;;1.45;1.00;;;;;;;;;;5005543;28;20474;-83
2023/10/14 04:08:13;;;;;;;1.00;0.80;;;;;;;;;;5010949;28;20022;-84
2023/10/14 04:10:43;;;;;;;1.50;0.90;;;;;;;;;;5020975;28;20458;-81
2023/10/14 04:13:13;;;;;;;1.48;1.13;;;;;;;;;;4999667;28;20378;-82
2023/10/14 04:16:13;;;;;;;1.92;1.38;;;;;;;;;;5000155;28;20022;-81
2023/10/14 04:18:32;;;;;;;1.25;1.08;;;;;;;;;;5014776;28;20034;-81
2023/10/14 04:21:35;;;;;;;1.00;0.80;;;;;;;;;;5001912;28;20025;-80
2023/10/14 04:24:08;;;;;;;0.90;0.70;;;;;;;;;;5014835;28;20501;-81
2023/10/14 04:26:35;;;;;;;1.27;0.90;;;;;;;;;;5001878;28;20080;-82
2023/10/14 04:29:03;;;;;;;1.08;0.85;;;;;;;;;;5003382;28;20056;-81
2023/10/14 04:31:40;;;;;;;0.93;0.70;;;;;;;;;;5007242;28;20029;-83
2023/10/14 04:34:08;;;;;;;0.88;0.70;;;;;;;;;;5007080;28;20092;-82
2023/10/14 04:36:43;;;;;;;1.70;0.85;;;;;;;;;;5001767;28;20480;-82
2023/10/14 04:39:15;;;;;;;0.80;0.70;;;;;;;;;;5000190;28;20025;-80
2023/10/14 04:41:55;;;;;;;0.75;0.70;;;;;;;;;;4999793;28;20037;-81
2023/10/14 04:44:36;;;;;;;1.63;1.10;;;;;;;;;;4999509;28;20355;-81
2023/10/14 04:47:04;;;;;;;1.20;1.10;;;;;;;;;;4999568;28;20084;-83
2023/10/14 04:49:37;;;;;;;1.10;0.70;;;;;;;;;;4999297;28;20121;-81
2023/10/14 04:52:05;;;;;;;;;;;;;;;;;;4999715;28;20093;-82
2023/10/14 04:54:34;;;;;;;0.85;0.70;;;;;;;;;;4999947;28;19909;-80
2023/10/14 04:57:50;;;;;;;1.35;1.05;;;;;;;;;;4999461;28;20026;-80
2023/10/14 04:59:53;;;;;;;0.60;0.60;;;;;;;;;;5005928;28;20030;-81
2023/10/14 05:02:24;;;;;;;0.80;0.73;;;;;;;;;;4998762;28;20498;-81
2023/10/14 05:04:51;;;;;;;0.90;0.70;;;;;;;;;;4999145;28;20068;-81
2023/10/14 05:07:19;;;;;;;2.33;1.42;;;;;;;;;;4999471;28;20030;-81
2023/10/14 05:09:56;;;;;;;1.58;1.20;;;;;;;;;;4999019;28;20026;-81
2023/10/14 05:12:24;;;;;;;1.23;1.00;;;;;;;;;;4999874;28;20053;-80
2023/10/14 05:14:52;;;;;;;0.80;0.70;;;;;;;;;;4998909;28;20025;-82
2023/10/14 05:17:25;;;;;;;1.13;0.82;;;;;;;;;;5000204;28;20037;-82
2023/10/14 05:19:57;;;;;;;1.35;0.90;;;;;;;;;;4999217;28;20037;-83
2023/10/14 05:22:37;;;;;;;;;;;;;;;;;;4999845;28;20110;-81
2023/10/14 05:25:08;;;;;;;1.52;1.05;;;;;;;;;;4998659;28;19952;-81
2023/10/14 05:27:55;;;;;;;0.95;0.80;;;;;;;;;;4998496;28;20076;-80
2023/10/14 05:30:24;;;;;;;1.50;1.08;;;;;;;;;;4998716;28;20120;-81
2023/10/14 05:32:53;;;;;;;1.08;0.77;;;;;;;;;;4998155;28;20041;-80
2023/10/14 05:35:22;;;;;;;0.90;0.80;;;;;;;;;;4998956;28;20022;-80
2023/10/14 05:37:50;;;;;;;1.02;0.80;;;;;;;;;;4999131;28;20022;-81
2023/10/14 05:40:16;;;;;;;1.00;0.80;;;;;;;;;;5002092;28;20492;-81
2023/10/14 05:42:43;;;;;;;1.33;1.00;;;;;;;;;;5002593;28;20062;-81
2023/10/14 05:45:11;;;;;;;1.00;0.80;;;;;;;;;;5003910;28;20026;-82
2023/10/14 05:47:39;;;;;;;0.90;0.77;;;;;;;;;;5004719;28;20028;-82
2023/10/14 05:50:08;;;;;;;0.93;0.80;;;;;;;;;;5007745;28;20461;-84
2023/10/14 05:52:34;;;;;;;0.98;0.77;;;;;;;;;;5004504;28;20384;-81
2023/10/14 05:55:01;;;;;;;0.90;0.70;;;;;;;;;;5002968;28;20095;-83
2023/10/14 05:57:29;;;;;;;1.27;1.13;;;;;;;;;;5003443;28;20113;-80
2023/10/14 05:59:58;;;;;;;0.90;0.73;;;;;;;;;;5004151;28;20026;-82
2023/10/14 06:02:25;;;;;;;0.85;0.70;;;;;;;;;;5003402;28;20137;-81
2023/10/14 06:04:51;;;;;;;1.00;0.80;;;;;;;;;;5006181;28;20025;-83
2023/10/14 06:07:20;;;;;;;0.90;0.80;;;;;;;;;;5012930;28;20033;-83
2023/10/14 06:09:47;;;;;;;1.15;0.88;;;;;;;;;;5008079;28;20033;-81
2023/10/14 06:12:13;;;;;;;1.05;0.80;;;;;;;;;;5001885;28;20465;-83
2023/10/14 06:14:40;;;;;;;0.75;0.65;;;;;;;;;;5002416;28;20125;-81
2023/10/14 06:17:07;;;;;;;1.45;1.30;;;;;;;;;;5002199;28;20474;-81
2023/10/14 06:19:36;;;;;;;1.10;0.80;;;;;;;;;;5002129;28;20081;-82
2023/10/14 06:22:02;;;;;;;1.08;0.80;;;;;;;;;;5001232;28;20072;-81
2023/10/14 06:24:33;;;;;;;1.45;1.02;;;;;;;;;;5002012;28;20113;-83
2023/10/14 06:27:08;;;;;;;1.20;0.88;;;;;;;;;;5001767;28;20096;-82
2023/10/14 06:29:37;;;;;;;1.13;0.80;;;;;;;;;;5001861;28;20026;-82
2023/10/14 06:32:04;;;;;;;1.52;1.10;;;;;;;;;;4997581;28;20040;-83
2023/10/14 06:34:34;;;;;;;0.65;0.60;;;;;;;;;;5001399;28;20026;-82
2023/10/14 06:37:07;;;;;;;1.10;0.80;;;;;;;;;;5001944;28;20026;-82
2023/10/14 06:39:39;;;;;;;;;;;;;;;;;;5002254;28;20478;-83
2023/10/14 06:42:06;;;;;;;1.02;0.90;;;;;;;;;;5002234;28;19992;-82
2023/10/14 06:44:32;;;;;;;1.15;0.85;;;;;;;;;;5003413;28;20072;-82
2023/10/14 06:46:59;;;;;;;0.77;0.70;;;;;;;;;;5002724;28;20533;-81
2023/10/14 06:49:32;;;;;;;2.15;1.08;;;;;;;;;;5001251;28;20095;-83
2023/10/14 06:52:01;;;;;;;2.08;0.93;;;;;;;;;;5002462;28;20120;-84
2023/10/14 06:54:30;;;;;;;1.10;0.80;;;;;;;;;;5003013;28;20442;-82
2023/10/14 06:56:56;;;;;;;1.05;0.80;;;;;;;;;;5001854;28;20022;-82
2023/10/14 06:59:23;;;;;;;0.98;0.77;;;;;;;;;;5003092;28;20047;-83
2023/10/14 07:01:49;;;;;;;0.90;0.80;;;;;;;;;;5002404;28;20474;-82
2023/10/14 07:04:16;;;;;;;1.02;0.93;;;;;;;;;;5002455;28;20140;-83
2023/10/14 07:06:47;;;;;;;0.95;0.82;;;;;;;;;;5004020;28;20033;-83
2023/10/14 07:09:17;;;;;;;2.65;1.70;;;;;;;;;;5004759;28;20065;-82
2023/10/14 07:11:46;;;;;;;0.60;0.60;;;;;;;;;;5001445;28;20026;-82
2023/10/14 07:14:13;;;;;;;1.90;1.35;;;;;;;;;;5000811;28;20030;-84
2023/10/14 07:16:40;;;;;;;0.77;0.60;;;;;;;;;;5005028;28;20022;-81
2023/10/14 07:19:06;;;;;;;0.85;0.68;;;;;;;;;;5007118;28;20032;-82
2023/10/14 07:21:33;;;;;;;1.00;0.75;;;;;;;;;;5005764;28;20092;-82
2023/10/14 07:24:05;;;;;;;0.65;0.65;;;;;;;;;;5005890;28;20022;-82
2023/10/14 07:26:36;;;;;;;0.70;0.70;;;;;;;;;;5008340;28;20026;-80
2023/10/14 07:29:03;;;;;;;0.60;0.60;;;;;;;;;;4994677;28;20041;-81
2023/10/14 07:31:31;;;;;;;0.68;0.60;;;;;;;;;;5007962;28;20052;-81
2023/10/14 07:34:08;;;;;;;3.03;1.77;;;;;;;;;;5010709;28;20022;-80
2023/10/14 07:36:35;;;;;;;1.55;1.27;;;;;;;;;;5009176;28;20021;-82
2023/10/14 07:39:19;;;;;;;0.80;0.70;;;;;;;;;;5004493;28;20080;-80
2023/10/14 07:41:52;;;;;;;0.95;0.73;;;;;;;;;;5028072;28;20022;-82
2023/10/14 07:44:18;;;;;;;0.77;0.73;;;;;;;;;;5012383;28;20022;-82
2023/10/14 07:46:44;;;;;;;0.75;0.73;;;;;;;;;;5010872;28;20098;-83
2023/10/14 07:49:10;;;;;;;1.17;0.95;;;;;;;;;;5014030;28;20026;-83
2023/10/14 07:51:36;;;;;;;0.73;0.73;;;;;;;;;;5010319;28;20088;-84
2023/10/14 07:54:02;;;;;;;0.85;0.77;;;;;;;;;;5010310;28;20095;-82
2023/10/14 07:56:29;;;;;;;0.73;0.60;;;;;;;;;;5010938;28;20034;-84
2023/10/14 07:58:55;;;;;;;0.80;0.80;;;;;;;;;;5010432;28;20034;-82
2023/10/14 08:01:25;;;;;;;0.82;0.75;;;;;;;;;;5006113;28;20029;-84
2023/10/14 08:03:56;;;;;;;0.70;0.70;;;;;;;;;;5007704;28;20050;-80
2023/10/14 08:06:22;;;;;;;0.75;0.70;;;;;;;;;;5009007;28;20022;-82
2023/10/14 08:08:50;;;;;;;0.90;0.80;;;;;;;;;;5009632;28;20030;-82
2023/10/14 08:11:16;;;;;;;0.77;0.70;;;;;;;;;;5010003;28;20026;-82
2023/10/14 08:13:43;;;;;;;1.10;0.80;;;;;;;;;;5009880;28;20022;-83
2023/10/14 08:16:11;;;;;;;0.85;0.70;;;;;;;;;;5010891;28;20022;-85
2023/10/14 08:18:44;;;;;;;1.15;1.05;;;;;;;;;;4996175;28;20034;-84
2023/10/14 08:21:11;;;;;;;2.08;0.80;;;;;;;;;;5013577;28;20038;-83
2023/10/14 08:23:39;;;;;;;0.70;0.68;;;;;;;;;;5008163;28;20089;-87
2023/10/14 08:26:13;;;;;;;0.60;0.60;;;;;;;;;;4996031;28;20034;-86
2023/10/14 08:28:39;;;;;;;0.52;0.52;;;;;;;;;;4986858;28;20039;-85
2023/10/14 08:31:08;;;;;;;0.60;0.60;;;;;;;;;;4965411;28;20117;-84
2023/10/14 08:33:36;;;;;;;1.33;0.77;;;;;;;;;;4950268;28;20035;-86
2023/10/14 08:36:06;;;;;;;0.93;0.88;;;;;;;;;;4924915;29;20032;-87
2023/10/14 08:38:33;;;;;;;0.80;0.80;;;;;;;;;;4943290;28;20031;-84
2023/10/14 08:41:03;;;;;;;0.60;0.60;;;;;;;;;;4964293;28;20042;-85
2023/10/14 08:43:35;;;;;;;0.65;0.60;;;;;;;;;;4961946;28;20077;-85
2023/10/14 08:46:03;;;;;;;0.77;0.77;;;;;;;;;;4949638;28;20030;-86
2023/10/14 08:48:30;;;;;;;0.98;0.80;;;;;;;;;;4965886;28;20038;-84
2023/10/14 08:50:58;;;;;;;0.60;0.60;;;;;;;;;;4963023;28;20058;-86
2023/10/14 08:53:25;;;;;;;0.70;0.70;;;;;;;;;;4965219;28;20039;-85
2023/10/14 08:55:53;;;;;;;0.73;0.73;;;;;;;;;;4962041;28;20039;-84
2023/10/14 08:58:22;;;;;;;1.02;0.93;;;;;;;;;;4938175;29;20055;-84
2023/10/14 09:00:50;;;;;;;0.82;0.68;;;;;;;;;;4944501;29;20027;-84
2023/10/14 09:03:16;;;;;;;1.00;0.85;;;;;;;;;;4950181;28;20047;-85
2023/10/14 09:05:46;;;;;;;0.75;0.70;;;;;;;;;;4937370;29;20373;-84
2023/10/14 09:08:16;;;;;;;0.55;0.55;;;;;;;;;;4961579;29;20024;-81
2023/10/14 09:10:43;;;;;;;0.65;0.65;;;;;;;;;;4928536;29;20615;-82
2023/10/14 09:13:10;;;;;;;0.80;0.80;;;;;;;;;;4958326;29;20515;-82
2023/10/14 09:15:42;;;;;;;0.70;0.70;;;;;;;;;;4944521;29;20054;-80
2023/10/14 09:18:17;;;;;;;0.70;0.70;;;;;;;;;;4958857;29;20031;-82
2023/10/14 09:20:43;;;;;;;0.60;0.60;;;;;;;;;;4930301;29;20536;-82
2023/10/14 09:23:18;;;;;;;0.60;0.60;;;;;;;;;;4959788;29;20586;-83
2023/10/14 09:25:49;;;;;;;0.63;0.63;;;;;;;;;;4937836;29;20032;-84
2023/10/14 09:28:20;;;;;;;0.60;0.60;;;;;;;;;;4957327;29;20118;-85
2023/10/14 09:30:49;;;;;;;0.65;0.65;;;;;;;;;;4921271;29;20044;-83
2023/10/14 09:33:16;;;;;;;0.73;0.73;;;;;;;;;;4909345;29;20032;-83
2023/10/14 09:35:48;;;;;;;0.65;0.63;;;;;;;;;;4907004;29;20056;-80
2023/10/14 09:38:18;;;;;;;0.60;0.60;;;;;;;;;;4909725;29;20067;-80
2023/10/14 09:40:47;;;;;;;0.50;0.50;;;;;;;;;;4908820;29;20040;-83
2023/10/14 09:43:17;;;;;;;0.50;0.50;;;;;;;;;;4910138;29;20032;-85
2023/10/14 09:45:47;;;;;;;1.15;0.98;;;;;;;;;;4910497;29;20036;-86
2023/10/14 09:48:17;;;;;;;0.55;0.55;;;;;;;;;;4913544;29;20040;-85
2023/10/14 09:50:45;;;;;;;0.95;0.85;;;;;;;;;;4898397;29;20041;-83
2023/10/14 09:53:14;;;;;;;0.55;0.55;;;;;;;;;;4899216;29;20033;-86
2023/10/14 09:55:46;;;;;;;0.50;0.50;;;;;;;;;;4900008;29;20041;-87
2023/10/14 09:58:18;;;;;;;0.50;0.50;;;;;;;;;;4900805;29;20048;-83
2023/10/14 10:00:45;;;;;;;0.60;0.60;;;;;;;;;;4903357;29;20041;-88
2023/10/14 10:03:12;;;;;;;0.50;0.50;;;;;;;;;;4936914;29;20055;-83
2023/10/14 10:05:40;;;;;;;0.60;0.60;;;;;;;;;;4954181;29;20035;-81
2023/10/14 10:08:07;;;;;;;0.50;0.50;;;;;;;;;;4950956;29;20059;-81
2023/10/14 10:10:36;;;;;;;0.70;0.70;;;;;;;;;;4930551;29;20046;-80
2023/10/14 10:13:03;;;;;;;1.10;0.88;;;;;;;;;;4904729;29;20573;-82
2023/10/14 10:15:35;;;;;;;0.50;0.50;;;;;;;;;;4906355;28;20040;-85
2023/10/14 10:18:05;;;;;;;0.70;0.70;;;;;;;;;;4971164;28;20486;-86
2023/10/14 10:23:38;;;;;;;0.80;0.80;;;;;;;;;;4982050;28;20423;-84
2023/10/14 10:28:51;;;;;;;0.60;0.60;;;;;;;;;;4927214;29;20507;-86
2023/10/14 10:31:21;;;;;;;0.68;0.68;;;;;;;;;;4918911;29;20035;-86
2023/10/14 10:33:50;;;;;;;0.50;0.50;;;;;;;;;;4903957;29;20028;-84
2023/10/14 10:36:24;;;;;;;0.85;0.75;;;;;;;;;;4909972;29;20086;-86
2023/10/14 10:38:53;;;;;;;1.10;0.70;;;;;;;;;;4925769;29;20031;-84
2023/10/14 10:41:23;;;;;;;1.02;0.90;;;;;;;;;;4925598;29;20029;-86
2023/10/14 10:43:50;;;;;;;1.48;0.95;;;;;;;;;;4921534;29;20045;-87
2023/10/14 10:46:37;;;;;;;0.60;0.60;;;589.20;2355.20;;;;;;4917849;29;20067;-82
2023/10/14 10:49:06;;;;;;;0.70;0.70;;;;;;;;;;4917946;29;20436;-86
2023/10/14 10:51:36;;;;;;;2.22;0.80;;;589.20;2380.80;;;;;;4917770;29;20040;-87
2023/10/14 10:54:02;;;;;;;0.40;0.40;;;589.20;2380.80;;;;;;4925967;29;20040;-81
2023/10/14 10:56:30;;;;;;;0.70;0.70;;;589.20;2380.80;;;;;;4924799;29;20067;-84
2023/10/14 10:59:04;;;;;;;0.60;0.60;;;589.30;2355.20;;;;;;4917912;29;20088;-85
2023/10/14 11:01:31;;;;;;;0.43;0.43;;;;;;;;;;4902624;29;20047;-84
2023/10/14 11:04:03;;;;;;;0.43;0.43;;;;;;;;;;4917967;29;20115;-85
2023/10/14 11:06:32;;;;;;;0.95;0.68;;;614.60;2278.40;;;;;;4920658;29;20034;-84
2023/10/14 11:08:58;;;;;;;0.40;0.40;;;614.80;2252.80;;;;;;4920243;29;20480;-85
2023/10/14 11:11:31;;;;;;;0.40;0.40;;;;;;;;;;4917335;29;20111;-83
2023/10/14 11:14:00;;;;;;;0.55;0.50;;;;;;;;;;4906234;29;20028;-85
2023/10/14 11:16:27;;;;;;;0.70;0.70;;;;;;;;;;4910581;29;20028;-86
2023/10/14 11:18:54;;;;;;;0.60;0.60;;;;;;;;;;4913284;29;20058;-85
2023/10/14 11:21:20;;;;;;;1.88;0.55;;;;;;;;;;4919437;29;20521;-85
2023/10/14 11:23:47;;;;;;;0.50;0.50;;;;;;;;;;4917883;29;20036;-85
2023/10/14 11:26:15;;;;;;;0.50;0.50;;;;;;;;;;4907896;29;20088;-81
2023/10/14 11:28:45;;;;;;;0.65;0.55;;;;;;;;;;4929439;28;20050;-85
2023/10/14 11:31:11;;;;;;;0.52;0.50;;;;;;;;;;4968880;28;20039;-81
2023/10/14 11:33:38;;;;;;;0.40;0.40;;;;;;;;;;4961770;28;20081;-84
2023/10/14 11:36:04;;;;;;;0.65;0.55;;;;;;;;;;4964690;28;20098;-83
2023/10/14 11:38:31;;;;;;;0.45;0.40;;;;;;;;;;4968671;28;20125;-84
2023/10/14 11:41:02;;;;;;;0.50;0.50;;;;;;;;;;4956906;28;20023;-85
2023/10/14 11:43:30;;;;;;;0.40;0.40;;;691.80;2022.40;;;;;;4966057;28;20023;-81
2023/10/14 11:45:56;;;;;;;0.50;0.50;;;;;;;;;;4956053;29;20038;-84
2023/10/14 11:48:23;;;;;;;0.40;0.40;;;;;;;;;;4956309;29;20023;-82
2023/10/14 11:51:01;;;;;;;1.42;0.85;;;;;;;;;;4955821;29;20035;-84
2023/10/14 11:53:34;;;;;;;0.40;0.40;;;;;;;;;;4972407;28;20027;-82
2023/10/14 11:56:01;;;;;;;0.60;0.50;;;;;;;;;;4960736;28;20174;-83
2023/10/14 11:58:31;;;;;;;1.02;0.45;;;;;;;;;;4969345;28;20073;-84
2023/10/14 12:00:57;;;;;;;0.43;0.43;;;;;;;;;;4960320;28;20051;-83
2023/10/14 12:03:27;;;;;;;0.65;0.50;;;;;;;;;;4988763;28;20047;-84
2023/10/14 12:05:59;;;;;;;0.82;0.60;;;;;;;;;;4965641;28;20026;-83
2023/10/14 12:08:26;;;;;;;0.40;0.40;;;;;;;;;;4967269;28;20081;-83
2023/10/14 12:10:53;;;;;;;1.38;0.60;;;;;;;;;;4973923;28;20034;-83
2023/10/14 12:13:19;;;;;;;0.43;0.40;;;;;;;;;;4960329;28;20026;-82
2023/10/14 12:15:46;;;;;;;1.00;0.60;;;;;;;;;;4958333;28;20095;-83
2023/10/14 12:18:13;;;;;;;0.50;0.30;;;;;;;;;;4958977;28;20019;-82
2023/10/14 12:20:46;;;;;;;0.75;0.60;;;;;;;;;;4974157;28;20026;-83
2023/10/14 12:23:18;;;;;;;0.82;0.60;;;;;;;;;;4967543;28;20029;-83
2023/10/14 12:25:46;;;;;;;0.68;0.50;;;;;;;;;;4975987;28;20023;-82
2023/10/14 12:28:17;;;;;;;0.75;0.60;;;;;;;;;;4970429;28;20033;-83
2023/10/14 12:30:43;;;;;;;1.90;0.98;;;;;;;;;;4964929;28;20026;-82
2023/10/14 12:33:19;;;;;;;0.50;0.40;;;;;;;;;;4974216;28;20065;-83
2023/10/14 12:35:45;;;;;;;0.70;0.50;;;;;;;;;;4964528;28;20085;-82
2023/10/14 12:38:15;;;;;;;0.40;0.40;;;;;;;;;;4968327;28;20026;-82
2023/10/14 12:40:43;;;;;;;0.80;0.65;;;;;;;;;;4958059;28;20037;-83
2023/10/14 12:43:12;;;;;;;0.30;0.30;;;;;;;;;;4974386;28;20030;-81
2023/10/14 12:45:39;;;;;;;0.20;0.20;;;;;;;;;;4963474;28;20034;-82
2023/10/14 12:48:11;;;;;;;0.38;0.35;;;;;;;;;;4968411;28;20023;-82
2023/10/14 12:50:41;;;;;;;0.30;0.30;;;;;;;;;;4935448;29;20043;-81
2023/10/14 12:53:10;;;;;;;0.45;0.43;;;;;;;;;;4936545;29;20063;-84
2023/10/14 12:55:39;;;;;;;0.63;0.40;;;;;;;;;;4939954;29;20105;-83
2023/10/14 12:58:07;;;;;;;0.30;0.30;;;;;;;;;;4936603;29;20052;-82
2023/10/14 13:00:35;;;;;;;0.70;0.60;;;;;;;;;;4930742;29;20521;-82
2023/10/14 13:03:01;;;;;;;0.70;0.47;;;;;;;;;;4938070;29;20051;-83
2023/10/14 13:05:28;;;;;;;0.50;0.50;;;;;;;;;;4918882;29;20562;-84
2023/10/14 13:07:55;;;;;;;0.57;0.47;;;;;;;;;;4918835;29;20122;-83
2023/10/14 13:10:23;;;;;;;0.32;0.32;;;;;;;;;;4929350;29;20487;-82
2023/10/14 13:12:50;;;;;;;0.50;0.50;;;;;;;;;;4939661;29;20043;-80
2023/10/14 13:15:26;;;;;;;0.52;0.40;;;;;;;;;;4918484;29;20111;-80
2023/10/14 13:18:05;;;;;;;0.52;0.35;;;;;;;;;;4925431;29;20027;-81
2023/10/14 13:20:32;;;;;;;1.20;0.73;;;;;;;;;;4950059;28;20594;-79
2023/10/14 13:23:03;;;;;;;0.40;0.40;;;;;;;;;;4976898;28;20129;-79
2023/10/14 13:25:30;;;;;;;1.40;0.93;;;;;;;;;;4961010;28;20539;-80
2023/10/14 13:27:56;;;;;;;1.38;0.80;;;;;;;;;;4969675;28;20125;-81
2023/10/14 13:30:23;;;;;;;0.47;0.40;;;;;;;;;;4968302;28;20031;-82
2023/10/14 13:32:53;;;;;;;0.80;0.60;;;;;;;;;;4976845;28;20467;-82
2023/10/14 13:35:19;;;;;;;0.88;0.57;;;;;;;;;;4974322;28;20054;-82
2023/10/14 13:37:45;;;;;;;0.90;0.65;;;;;;;;;;4963520;28;20033;-80
2023/10/14 13:40:12;;;;;;;0.65;0.52;;;;;;;;;;4979256;28;20069;-83
2023/10/14 13:42:38;;;;;;;1.10;0.63;;;;;;;;;;4980749;28;20064;-82
2023/10/14 13:45:05;;;;;;;0.52;0.40;;;;;;;;;;4994870;28;20490;-79
2023/10/14 13:47:32;;;;;;;3.63;0.50;;;;;;;;;;4994692;28;20034;-83
2023/10/14 13:49:59;;;;;;;0.40;0.40;;;;;;;;;;4994593;28;20034;-83
2023/10/14 13:52:25;;;;;;;0.93;0.60;;;;;;;;;;4977329;28;20077;-82
2023/10/14 13:54:53;;;;;;;0.60;0.60;;;;;;;;;;4977376;28;20026;-82
2023/10/14 13:57:19;;;;;;;0.57;0.47;;;;;;;;;;4977231;28;20026;-82
2023/10/14 13:59:46;;;;;;;0.55;0.40;;;;;;;;;;4979888;28;20114;-84
2023/10/14 14:02:12;;;;;;;0.47;0.40;;;;;;;;;;4977645;28;20494;-84
2023/10/14 14:04:38;;;;;;;1.98;0.85;;;;;;;;;;4977683;28;20030;-84
2023/10/14 14:07:06;;;;;;;0.50;0.50;;;;;;;;;;4978056;28;20030;-85
2023/10/14 14:09:33;;;;;;;1.02;0.65;;;;;;;;;;4977788;28;20139;-84
2023/10/14 14:11:59;;;;;;;1.35;0.70;;;;;;;;;;4977704;28;20058;-87
2023/10/14 14:14:25;;;;;;;0.73;0.40;;;;;;;;;;4977295;28;20471;-85
2023/10/14 14:16:52;;;;;;;0.57;0.50;;;;;;;;;;4977963;28;20109;-84
2023/10/14 14:19:19;;;;;;;0.77;0.60;;;;;;;;;;4978000;28;20407;-82
2023/10/14 14:21:48;;;;;;;1.27;0.65;;;;;;;;;;4976909;28;20463;-84
2023/10/14 14:24:15;;;;;;;1.25;0.70;;;;;;;;;;4977312;28;20478;-83
2023/10/14 14:26:41;;;;;;;0.88;0.60;;;;;;;;;;4976937;28;20055;-84
2023/10/14 14:29:10;;;;;;;1.02;0.63;;;;;;;;;;4976840;28;20027;-83
2023/10/14 14:31:36;;;;;;;0.73;0.55;;;;;;;;;;4976976;28;20027;-82
2023/10/14 14:34:02;;;;;;;1.00;0.60;;;;;;;;;;4976912;28;20019;-83
2023/10/14 14:36:28;;;;;;;1.25;0.65;;;;;;;;;;4976716;28;20468;-82
2023/10/14 14:38:54;;;;;;;1.83;0.70;;;;;;;;;;4977029;28;20058;-81
2023/10/14 14:41:26;;;;;;;1.25;0.70;;;;;;;;;;4977158;28;20023;-83
2023/10/14 14:43:55;;;;;;;0.75;0.68;;;;;;;;;;4977347;28;20027;-83
2023/10/14 14:46:21;;;;;;;0.52;0.47;;;;;;;;;;4981583;28;20031;-83
2023/10/14 14:48:50;;;;;;;0.47;0.40;;;;;;;;;;4977120;28;20019;-83
2023/10/14 14:51:17;;;;;;;0.55;0.50;;;;;;;;;;4976578;28;20170;-83
2023/10/14 14:53:44;;;;;;;1.45;0.95;;;;;;;;;;4977378;28;20520;-83
2023/10/14 14:56:11;;;;;;;0.40;0.40;;;;;;;;;;4976411;28;20034;-81
2023/10/14 14:58:37;;;;;;;0.65;0.57;;;;;;;;;;4977284;28;20019;-81
2023/10/14 15:01:04;;;;;;;1.30;0.90;;;;;;;;;;4977324;28;20399;-81
2023/10/14 15:03:31;;;;;;;0.85;0.70;;;;;;;;;;4976160;28;20042;-83
2023/10/14 15:05:58;;;;;;;0.70;0.52;;;;;;;;;;4977615;28;20038;-83
2023/10/14 15:08:24;;;;;;;1.88;0.90;;;;;;;;;;4977738;28;20102;-84
2023/10/14 15:10:50;;;;;;;0.40;0.40;;;;;;;;;;4982763;28;20027;-81
2023/10/14 15:13:17;;;;;;;0.65;0.52;;;;;;;;;;4983052;28;20030;-84